sensor_id;sensor_type;location;lat;lon;timestamp;temperature;humidity
40556;DHT22;26250;45.422;11.100;2022-12-16T08:08:37;9.80;96.80
40556;DHT22;26250;45.422;11.100;2022-12-16T08:11:33;9.70;96.40
40556;DHT22;26250;45.422;11.100;2022-12-16T08:14:20;9.70;96.40
40556;DHT22;26250;45.422;11.100;2022-12-16T08:17:05;9.80;96.20
40556;DHT22;26250;45.422;11.100;2022-12-16T08:19:51;9.70;96.40
40556;DHT22;26250;45.422;11.100;2022-12-16T08:22:36;9.60;96.60
40556;DHT22;26250;45.422;11.100;2022-12-16T08:25:21;9.50;96.90
40556;DHT22;26250;45.422;11.100;2022-12-16T08:28:08;9.60;97.10
40556;DHT22;26250;45.422;11.100;2022-12-16T12:01:42;11.10;96.70
40556;DHT22;26250;45.422;11.100;2022-12-16T12:04:29;11.00;96.60
40556;DHT22;26250;45.422;11.100;2022-12-16T12:10:30;10.80;96.90
40556;DHT22;26250;45.422;11.100;2022-12-16T12:16:38;10.70;96.90
40556;DHT22;26250;45.422;11.100;2022-12-16T12:19:45;10.80;96.70
40556;DHT22;26250;45.422;11.100;2022-12-16T12:22:36;10.80;97.10
40556;DHT22;26250;45.422;11.100;2022-12-16T12:28:36;11.00;96.60
40556;DHT22;26250;45.422;11.100;2022-12-16T12:34:29;10.90;96.70
40556;DHT22;26250;45.422;11.100;2022-12-16T12:37:52;10.90;96.50
40556;DHT22;26250;45.422;11.100;2022-12-16T12:44:37;10.90;96.90
40556;DHT22;26250;45.422;11.100;2022-12-16T12:47:05;10.90;96.80
40556;DHT22;26250;45.422;11.100;2022-12-16T12:56:43;10.80;97.20
40556;DHT22;26250;45.422;11.100;2022-12-16T13:00:02;10.80;97.00
40556;DHT22;26250;45.422;11.100;2022-12-16T13:06:06;11.00;96.60
40556;DHT22;26250;45.422;11.100;2022-12-16T19:27:55;11.90;95.70
40556;DHT22;26250;45.422;11.100;2022-12-16T19:30:40;11.80;95.70
40556;DHT22;26250;45.422;11.100;2022-12-16T19:33:26;12.00;95.60
40556;DHT22;26250;45.422;11.100;2022-12-16T19:36:11;12.00;95.30
40556;DHT22;26250;45.422;11.100;2022-12-16T19:38:56;11.90;95.70
40556;DHT22;26250;45.422;11.100;2022-12-16T19:41:42;11.80;95.70
40556;DHT22;26250;45.422;11.100;2022-12-16T19:44:29;12.00;95.60
40556;DHT22;26250;45.422;11.100;2022-12-16T19:47:17;11.90;95.60
40556;DHT22;26250;45.422;11.100;2022-12-16T19:50:03;11.80;95.90
40556;DHT22;26250;45.422;11.100;2022-12-16T19:52:48;11.70;96.10
40556;DHT22;26250;45.422;11.100;2022-12-16T19:55:33;11.90;95.80
40556;DHT22;26250;45.422;11.100;2022-12-16T19:58:20;12.00;95.60
40556;DHT22;26250;45.422;11.100;2022-12-16T20:01:05;12.20;95.00
40556;DHT22;26250;45.422;11.100;2022-12-16T20:03:54;11.90;95.60
40556;DHT22;26250;45.422;11.100;2022-12-16T20:06:39;12.10;95.30
40556;DHT22;26250;45.422;11.100;2022-12-16T20:09:25;12.20;95.20
40556;DHT22;26250;45.422;11.100;2022-12-16T20:12:11;12.20;95.10
40556;DHT22;26250;45.422;11.100;2022-12-16T20:14:56;12.20;95.20
40556;DHT22;26250;45.422;11.100;2022-12-16T20:17:42;12.30;95.20
40556;DHT22;26250;45.422;11.100;2022-12-16T20:20:27;12.30;95.10
40556;DHT22;26250;45.422;11.100;2022-12-16T20:23:12;12.20;95.20
40556;DHT22;26250;45.422;11.100;2022-12-16T20:26:00;12.20;95.20
40556;DHT22;26250;45.422;11.100;2022-12-16T20:28:46;12.30;95.20
40556;DHT22;26250;45.422;11.100;2022-12-16T20:31:31;12.40;94.80
40556;DHT22;26250;45.422;11.100;2022-12-16T20:34:17;12.40;94.80
40556;DHT22;26250;45.422;11.100;2022-12-16T20:37:03;12.40;94.80
40556;DHT22;26250;45.422;11.100;2022-12-16T20:39:49;12.30;94.90
40556;DHT22;26250;45.422;11.100;2022-12-16T20:42:35;12.30;95.00
40556;DHT22;26250;45.422;11.100;2022-12-16T20:45:21;12.30;94.90
40556;DHT22;26250;45.422;11.100;2022-12-16T20:48:12;12.30;94.90
40556;DHT22;26250;45.422;11.100;2022-12-16T20:50:59;12.40;94.80
40556;DHT22;26250;45.422;11.100;2022-12-16T20:53:52;12.40;94.80
40556;DHT22;26250;45.422;11.100;2022-12-16T20:56:38;12.40;94.60
40556;DHT22;26250;45.422;11.100;2022-12-16T20:59:24;12.30;94.80
40556;DHT22;26250;45.422;11.100;2022-12-16T21:02:13;12.10;95.20
40556;DHT22;26250;45.422;11.100;2022-12-16T21:05:18;12.10;95.10
40556;DHT22;26250;45.422;11.100;2022-12-16T21:08:04;12.20;95.00
40556;DHT22;26250;45.422;11.100;2022-12-16T21:10:50;12.10;95.00
40556;DHT22;26250;45.422;11.100;2022-12-16T21:13:39;12.00;95.40
40556;DHT22;26250;45.422;11.100;2022-12-16T21:16:25;12.20;95.10
40556;DHT22;26250;45.422;11.100;2022-12-16T21:19:10;12.40;94.70
40556;DHT22;26250;45.422;11.100;2022-12-16T21:21:59;12.40;94.60
40556;DHT22;26250;45.422;11.100;2022-12-16T21:24:45;12.40;94.60
40556;DHT22;26250;45.422;11.100;2022-12-16T21:27:30;12.50;94.50
40556;DHT22;26250;45.422;11.100;2022-12-16T21:30:18;12.50;95.60
40556;DHT22;26250;45.422;11.100;2022-12-16T21:33:03;12.30;95.10
40556;DHT22;26250;45.422;11.100;2022-12-16T21:36:07;12.20;94.90
40556;DHT22;26250;45.422;11.100;2022-12-16T21:38:55;12.20;95.10
40556;DHT22;26250;45.422;11.100;2022-12-16T21:41:41;11.80;95.70
40556;DHT22;26250;45.422;11.100;2022-12-16T21:44:26;11.80;95.60
40556;DHT22;26250;45.422;11.100;2022-12-16T21:47:12;11.70;95.70
40556;DHT22;26250;45.422;11.100;2022-12-16T21:49:57;11.70;96.10
40556;DHT22;26250;45.422;11.100;2022-12-16T21:52:46;11.90;95.60
40556;DHT22;26250;45.422;11.100;2022-12-16T21:55:31;12.00;95.60
40556;DHT22;26250;45.422;11.100;2022-12-16T21:58:17;12.00;95.20
40556;DHT22;26250;45.422;11.100;2022-12-16T22:01:03;12.10;95.30
40556;DHT22;26250;45.422;11.100;2022-12-16T22:03:48;12.10;95.20
40556;DHT22;26250;45.422;11.100;2022-12-16T22:06:35;12.10;95.40
40556;DHT22;26250;45.422;11.100;2022-12-16T22:09:20;12.20;95.10
40556;DHT22;26250;45.422;11.100;2022-12-16T22:12:06;12.30;95.10
40556;DHT22;26250;45.422;11.100;2022-12-16T22:14:52;12.10;95.40
40556;DHT22;26250;45.422;11.100;2022-12-16T22:17:37;11.90;95.60
40556;DHT22;26250;45.422;11.100;2022-12-16T22:20:42;12.10;95.30
40556;DHT22;26250;45.422;11.100;2022-12-16T22:23:28;12.10;95.30
